Budapest Bridge — VRIZ5 — position and weather

sailwx.info

Track history (hours):
 
Tides and Currents Weather Stations Pressure Air Temp Water Temp Dewpoint Dewpoint Depression Visibility Wind Speed Wind Dir Waves Ship Positions

Budapest Bridge

Last reported at 2016-Sep-22 04:31 UTC. Time now 2016-Sep-26 02:00 UTC.
Position N 34°41' E 135°16'.

Length 268 m; draft 10.9 m.

Type: Cargo ship. MMSI: 477434200.

Date/timePositionNaut miles runAvg speedWind from/ knotsBaromVisibWave heightAir tempDewpointWater temp
2016-Sep-22 04:31N 34°41' E 135°16'0 0.0
2016-Sep-22 03:28N 34°41' E 135°16'0 0.0
2016-Sep-22 00:31N 34°41' E 135°16'0 0.0
2016-Sep-21 23:31N 34°41' E 135°16'0 0.0
2016-Sep-21 22:31N 34°41' E 135°16'0 0.0
2016-Sep-21 19:31N 34°41' E 135°16'0 0.0
2016-Sep-21 16:31N 34°41' E 135°16'3 0.4
2016-Sep-21 09:33N 34°40' E 135°19'10 9.6
2016-Sep-21 08:33N 34°31' E 135°14'3712.1
2016-Sep-21 05:33N 33°57' E 134°58'  
2016-Sep-18 19:33N 35°27' E 139°40'0 0.0
2016-Sep-18 15:33N 35°27' E 139°40'0 0.0
2016-Sep-18 14:33N 35°27' E 139°40'0 0.0
2016-Sep-18 10:33N 35°27' E 139°40'0 0.0
2016-Sep-18 09:33N 35°27' E 139°40'5 0.6
2016-Sep-18 02:31N 35°29' E 139°45'6 5.8
2016-Sep-18 01:33N 35°33' E 139°51'5 5.4
2016-Sep-18 00:33N 35°37' E 139°46'0 0.0
2016-Sep-17 22:33N 35°37' E 139°46'0 0.0
2016-Sep-17 21:33N 35°37' E 139°46'0 0.0
2016-Sep-17 20:33N 35°37' E 139°46'0 0.0
2016-Sep-17 19:15N 35°37' E 139°46'0 0.0
2016-Sep-17 13:30N 35°37' E 139°46'0 0.0
2016-Sep-17 12:33N 35°37' E 139°46'0 0.0
2016-Sep-17 10:33N 35°37' E 139°46'0 0.1
2016-Sep-17 09:33N 35°37' E 139°46'4 3.6
2016-Sep-17 08:33N 35°34' E 139°49'10 9.7
2016-Sep-17 07:34N 35°25' E 139°47'2211.1
2016-Sep-17 05:33N 35°03' E 139°42'1111.0
2016-Sep-17 04:33N 34°57' E 139°30'  
Track history (hours):
 
Tides and Currents Weather Stations Pressure Air Temp Water Temp Dewpoint Dewpoint Depression Visibility Wind Speed Wind Dir Waves Ship Positions

Budapest Bridge

Last reported at 2016-Sep-22 04:31 UTC. Time now 2016-Sep-26 02:00 UTC.
Position N 34°41' E 135°16'.

Length 268 m; draft 10.9 m.

Type: Cargo ship. MMSI: 477434200.

Date/timePositionNaut miles runAvg speedWind from/ knotsBaromVisibWave heightAir tempDewpointWater temp
2016-Sep-22 04:31N 34°41' E 135°16'0 0.0
2016-Sep-22 03:28N 34°41' E 135°16'0 0.0
2016-Sep-22 00:31N 34°41' E 135°16'0 0.0
2016-Sep-21 23:31N 34°41' E 135°16'0 0.0
2016-Sep-21 22:31N 34°41' E 135°16'0 0.0
2016-Sep-21 19:31N 34°41' E 135°16'0 0.0
2016-Sep-21 16:31N 34°41' E 135°16'3 0.4
2016-Sep-21 09:33N 34°40' E 135°19'10 9.6
2016-Sep-21 08:33N 34°31' E 135°14'3712.1
2016-Sep-21 05:33N 33°57' E 134°58'  
2016-Sep-18 19:33N 35°27' E 139°40'0 0.0
2016-Sep-18 15:33N 35°27' E 139°40'0 0.0
2016-Sep-18 14:33N 35°27' E 139°40'0 0.0
2016-Sep-18 10:33N 35°27' E 139°40'0 0.0
2016-Sep-18 09:33N 35°27' E 139°40'5 0.6
2016-Sep-18 02:31N 35°29' E 139°45'6 5.8
2016-Sep-18 01:33N 35°33' E 139°51'5 5.4
2016-Sep-18 00:33N 35°37' E 139°46'0 0.0
2016-Sep-17 22:33N 35°37' E 139°46'0 0.0
2016-Sep-17 21:33N 35°37' E 139°46'0 0.0
2016-Sep-17 20:33N 35°37' E 139°46'0 0.0
2016-Sep-17 19:15N 35°37' E 139°46'0 0.0
2016-Sep-17 13:30N 35°37' E 139°46'0 0.0
2016-Sep-17 12:33N 35°37' E 139°46'0 0.0
2016-Sep-17 10:33N 35°37' E 139°46'0 0.1
2016-Sep-17 09:33N 35°37' E 139°46'4 3.6
2016-Sep-17 08:33N 35°34' E 139°49'10 9.7
2016-Sep-17 07:34N 35°25' E 139°47'2211.1
2016-Sep-17 05:33N 35°03' E 139°42'1111.0
2016-Sep-17 04:33N 34°57' E 139°30'  

Dump ship's entire track history